Time;durP1;ratioP1;P1;durP2;ratioP2;P2;SDS_P1;SDS_P2;PMS_P1;PMS_P2;Temp;Humidity;BMP_temperature;BMP_pressure;BME280_temperature;BME280_humidity;BME280_pressure;Samples;Min_cycle;Max_cycle;Signal;HPM_P1;HPM_P2
2021/10/05 00:00:01;;;;;;;3.08;1.38;;;;;;;14.74;54.55;101143.88;4984344;28;114595;-68
2021/10/05 00:02:32;;;;;;;3.22;1.40;;;;;;;14.73;54.62;101150.16;4982745;28;124855;-68
2021/10/05 00:04:59;;;;;;;2.75;1.45;;;;;;;14.71;54.65;101152.03;4981682;28;123780;-69
2021/10/05 00:07:26;;;;;;;5.15;1.40;;;;;;;14.72;54.73;101156.44;4980744;28;114356;-69
2021/10/05 00:09:54;;;;;;;3.10;1.38;;;;;;;14.70;54.82;101153.00;4985252;28;113753;-68
2021/10/05 00:12:21;;;;;;;2.40;1.17;;;;;;;14.70;54.88;101158.34;4983591;28;123762;-68
2021/10/05 00:14:50;;;;;;;3.30;1.30;;;;;;;14.69;54.82;101167.28;4988757;28;124336;-68
2021/10/05 00:17:19;;;;;;;5.13;1.30;;;;;;;14.70;54.87;101158.34;4984965;28;114190;-69
2021/10/05 00:19:46;;;;;;;2.42;1.20;;;;;;;14.69;54.78;101161.94;4979675;28;113965;-69
2021/10/05 00:22:15;;;;;;;2.22;1.10;;;;;;;14.70;54.89;101169.00;4985406;28;125012;-69
2021/10/05 00:24:44;;;;;;;3.97;1.40;;;;;;;14.68;54.76;101165.56;4975258;28;123711;-69
2021/10/05 00:27:11;;;;;;;2.78;1.20;;;;;;;14.69;54.83;101160.16;4991775;28;114147;-69
2021/10/05 00:29:38;;;;;;;4.13;1.38;;;;;;;14.69;54.92;101156.59;4988349;28;113931;-70
2021/10/05 00:32:06;;;;;;;2.22;1.10;;;;;;;14.68;54.96;101160.25;4985625;28;124382;-67
2021/10/05 00:34:33;;;;;;;3.00;1.10;;;;;;;14.67;55.00;101147.84;4986042;28;123991;-68
2021/10/05 00:37:00;;;;;;;2.55;1.30;;;;;;;14.69;54.90;101151.28;4968392;28;113167;-68
2021/10/05 00:39:28;;;;;;;5.18;1.10;;;;;;;14.69;54.98;101145.94;4986734;28;113836;-69
2021/10/05 00:41:55;;;;;;;3.20;1.30;;;;;;;14.69;54.99;101140.63;4966623;28;124570;-68
2021/10/05 00:44:30;;;;;;;2.88;1.30;;;;;;;14.68;54.95;101133.59;4986670;28;124094;-68
2021/10/05 00:47:06;;;;;;;4.93;1.33;;;;;;;14.67;55.00;101131.84;4972715;28;114167;-68
2021/10/05 00:49:35;;;;;;;7.00;1.30;;;;;;;14.67;55.03;101126.53;4982077;28;115663;-68
2021/10/05 00:52:03;;;;;;;3.00;1.20;;;;;;;14.69;54.92;101129.94;4979371;28;124127;-68
2021/10/05 00:54:31;;;;;;;2.35;1.10;;;;;;;14.67;54.90;101126.53;4987911;28;123757;-68
2021/10/05 00:56:59;;;;;;;2.30;1.30;;;;;;;14.65;54.84;101112.41;4968914;28;114319;-68
2021/10/05 00:59:27;;;;;;;2.20;1.27;;;;;;;14.63;55.01;101114.31;4982591;28;114596;-68
2021/10/05 01:01:54;;;;;;;4.03;1.30;;;;;;;14.63;55.10;101108.97;4988433;28;124758;-68
2021/10/05 01:04:21;;;;;;;2.42;1.40;;;;;;;14.62;55.05;101107.25;4992055;28;124002;-68
2021/10/05 01:07:16;;;;;;;2.15;1.40;;;;;;;14.57;55.05;101103.06;4988732;28;115058;-68
2021/10/05 01:09:44;;;;;;;2.08;1.17;;;;;;;14.56;55.00;101097.78;4979408;28;114229;-68
2021/10/05 01:12:12;;;;;;;3.30;1.20;;;;;;;14.54;55.08;101100.56;4978260;28;124664;-68
2021/10/05 01:14:40;;;;;;;3.05;1.33;;;;;;;14.53;55.49;101104.16;4979642;28;123968;-68
2021/10/05 01:17:09;;;;;;;6.70;1.50;;;;;;;14.51;55.25;101095.38;4983522;28;115128;-69
2021/10/05 01:19:39;;;;;;;2.72;1.20;;;;;;;14.49;55.18;101086.63;4983947;28;113875;-69
2021/10/05 01:22:06;;;;;;;2.05;1.40;;;;;;;14.47;55.43;101083.19;4965116;28;123842;-68
2021/10/05 01:24:34;;;;;;;2.10;1.20;;;;;;;14.47;55.39;101077.00;4985064;28;124745;-68
2021/10/05 01:27:01;;;;;;;2.90;1.30;;;;;;;14.45;55.41;101074.44;4988089;28;114342;-68
2021/10/05 01:29:31;;;;;;;3.65;1.40;;;;;;;14.42;55.39;101071.94;4985875;28;113875;-68
2021/10/05 01:32:00;;;;;;;3.72;1.30;;;;;;;14.41;55.37;101067.56;4987866;28;124789;-68
2021/10/05 01:34:29;;;;;;;4.55;1.33;;;;;;;14.40;55.57;101055.16;4988685;28;123794;-68
2021/10/05 01:37:00;;;;;;;2.47;1.35;;;;;;;14.37;55.29;101055.34;4990652;28;115548;-68
2021/10/05 01:39:38;;;;;;;2.63;1.38;;;;;;;14.35;55.60;101046.56;4977302;28;115027;-68
2021/10/05 01:42:11;;;;;;;3.17;1.27;;;;;;;14.33;55.62;101048.47;4973693;28;124257;-68
2021/10/05 01:44:42;;;;;;;3.88;1.73;;;;;;;14.32;55.62;101038.78;4991635;28;123860;-68
2021/10/05 01:47:09;;;;;;;3.22;1.27;;;;;;;14.30;55.68;101043.34;4987905;28;114461;-67
2021/10/05 01:49:37;;;;;;;2.67;1.40;;;;;;;14.28;55.75;101034.53;4986767;28;113798;-67
2021/10/05 01:52:06;;;;;;;1.98;1.20;;;;;;;14.28;55.84;101034.53;4980384;28;124064;-68
2021/10/05 01:54:35;;;;;;;2.28;1.30;;;;;;;14.26;55.84;101036.44;4981677;28;124026;-68
2021/10/05 01:57:02;;;;;;;2.60;1.20;;;;;;;14.26;55.79;101023.13;4983179;28;114376;-68
2021/10/05 01:59:29;;;;;;;3.30;1.25;;;;;;;14.24;55.78;101027.69;4986087;28;114833;-67
2021/10/05 02:01:57;;;;;;;3.42;1.25;;;;;;;14.24;55.92;101017.03;4984505;28;124117;-67
2021/10/05 02:04:24;;;;;;;2.75;1.50;;;;;;;14.21;55.97;101024.25;4986546;28;124350;-67
2021/10/05 02:06:51;;;;;;;3.05;1.63;;;;;;;14.21;55.81;101024.25;4985126;28;115124;-68
2021/10/05 02:09:18;;;;;;;2.25;1.33;;;;;;;14.19;56.01;101010.16;4980216;28;113749;-67
2021/10/05 02:11:46;;;;;;;2.83;1.50;;;;;;;14.19;56.11;101009.31;4985264;28;123066;-67
2021/10/05 02:14:13;;;;;;;2.97;1.15;;;;;;;14.19;56.05;101001.31;4970343;28;122999;-68
2021/10/05 02:16:41;;;;;;;2.15;1.40;;;;;;;14.18;56.23;100997.81;4973974;28;113809;-67
2021/10/05 02:19:09;;;;;;;2.00;1.40;;;;;;;14.19;56.15;100999.50;4984235;28;113947;-68
2021/10/05 02:21:36;;;;;;;3.17;1.38;;;;;;;14.19;56.28;100993.34;4988350;28;124695;-68
2021/10/05 02:26:51;;;;;;;3.65;1.50;;;;;;;14.18;56.40;100983.59;4986131;28;115285;-68
2021/10/05 02:29:21;;;;;;;3.65;1.40;;;;;;;14.16;56.67;100978.38;4977746;28;115063;-68
2021/10/05 02:31:49;;;;;;;2.97;1.40;;;;;;;14.16;56.31;100989.03;4982665;28;124510;-68
2021/10/05 02:34:17;;;;;;;2.33;1.38;;;;;;;14.16;56.34;100983.69;4964089;28;124694;-68
2021/10/05 02:36:44;;;;;;;3.45;1.45;;;;;;;14.15;56.40;100976.66;4989236;28;114096;-68
2021/10/05 02:39:12;;;;;;;3.22;1.40;;;;;;;14.15;56.15;100982.00;4984817;28;114325;-68
2021/10/05 02:41:39;;;;;;;2.40;1.48;;;;;;;14.14;56.53;100974.94;4986214;28;123973;-68
2021/10/05 02:44:06;;;;;;;1.98;1.50;;;;;;;14.13;56.30;100972.38;4966166;28;123153;-67
2021/10/05 02:46:34;;;;;;;3.92;1.50;;;;;;;14.13;56.44;100977.72;4992035;28;114311;-67
2021/10/05 02:49:01;;;;;;;3.45;1.50;;;;;;;14.11;56.63;100967.13;4983709;28;114879;-67
2021/10/05 02:51:28;;;;;;;3.10;1.38;;;;;;;14.13;56.48;100961.72;4983648;28;123873;-68
2021/10/05 02:53:56;;;;;;;2.53;1.42;;;;;;;14.12;56.66;100950.19;4969577;28;122762;-68
2021/10/05 02:56:23;;;;;;;4.18;1.50;;;;;;;14.11;56.63;100948.50;4986323;28;115031;-67
2021/10/05 02:58:50;;;;;;;2.80;1.38;;;;;;;14.12;56.74;100944.03;4989891;28;114573;-67
2021/10/05 03:01:17;;;;;;;2.53;1.55;;;;;;;14.13;56.66;100935.94;4980201;28;123871;-68
2021/10/05 03:03:47;;;;;;;2.88;1.38;;;;;;;14.12;56.78;100928.88;4978034;28;123907;-67
2021/10/05 03:06:15;;;;;;;2.58;1.40;;;;;;;14.13;56.83;100930.63;4985073;28;114095;-67
2021/10/05 03:08:43;;;;;;;4.72;1.52;;;;;;;14.13;56.79;100927.94;4983326;28;113958;-67
2021/10/05 03:11:10;;;;;;;2.88;1.60;;;;;;;14.14;56.82;100929.66;4987710;28;124103;-68
2021/10/05 03:13:39;;;;;;;2.97;1.60;;;;;;;14.12;56.83;100918.22;4982937;28;124052;-68
2021/10/05 03:16:07;;;;;;;4.25;1.67;;;;;;;14.13;56.98;100909.31;4982233;28;115184;-68
2021/10/05 03:18:34;;;;;;;2.20;1.45;;;;;;;14.14;56.88;100916.34;4985004;28;115322;-67
2021/10/05 03:21:01;;;;;;;5.20;1.45;;;;;;;14.15;56.85;100912.75;4983562;28;124134;-68
2021/10/05 03:23:29;;;;;;;2.35;1.45;;;;;;;14.14;56.93;100911.00;4980515;28;123848;-67
2021/10/05 03:25:56;;;;;;;4.18;1.38;;;;;;;14.14;56.93;100900.34;4983833;28;114323;-68
2021/10/05 03:28:23;;;;;;;3.35;1.42;;;;;;;14.14;57.13;100905.69;4984422;28;114206;-68
2021/10/05 03:30:50;;;;;;;2.58;1.40;;;;;;;14.15;57.07;100899.41;4968227;28;122935;-68
2021/10/05 03:33:17;;;;;;;3.60;1.52;;;;;;;14.16;57.09;100898.47;4983911;28;123726;-68
2021/10/05 03:35:45;;;;;;;3.60;1.70;;;;;;;14.16;57.09;100898.47;4983969;28;114508;-68
2021/10/05 03:38:12;;;;;;;2.40;1.50;;;;;;;14.16;57.04;100892.28;4984285;28;114374;-67
2021/10/05 03:40:39;;;;;;;3.10;1.50;;;;;;;14.14;57.01;100884.38;4988073;28;123929;-68
2021/10/05 03:43:06;;;;;;;2.42;1.40;;;;;;;14.14;57.01;100881.72;4974493;28;123771;-68
2021/10/05 03:45:33;;;;;;;2.67;1.45;;;;;;;14.13;57.10;100877.34;4980157;28;114636;-68
2021/10/05 03:48:00;;;;;;;2.72;1.60;;;;;;;14.13;57.17;100872.03;4985530;28;114707;-68
2021/10/05 03:50:28;;;;;;;2.03;1.40;;;;;;;14.13;57.18;100871.19;4981056;28;125278;-68
2021/10/05 03:52:55;;;;;;;3.22;1.40;;;;;;;14.11;57.03;100865.94;4982241;28;123932;-69
2021/10/05 03:55:23;;;;;;;3.60;1.70;;;;;;;14.10;57.13;100866.88;4981452;28;114932;-68
2021/10/05 03:57:50;;;;;;;3.42;1.67;;;;;;;14.10;57.13;100856.22;4981132;28;114313;-68
2021/10/05 04:00:17;;;;;;;3.28;1.65;;;;;;;14.11;57.36;100862.38;4982356;28;124039;-68
2021/10/05 04:02:44;;;;;;;2.63;1.55;;;;;;;14.13;57.19;100860.53;4982399;28;122926;-68
2021/10/05 04:05:11;;;;;;;2.70;1.70;;;;;;;14.12;57.16;100854.31;4956600;28;115472;-68
2021/10/05 04:07:38;;;;;;;3.92;1.80;;;;;;;14.11;57.21;100847.28;4981121;28;114527;-68
2021/10/05 04:10:06;;;;;;;3.13;1.55;;;;;;;14.10;57.06;100837.56;4983910;28;124056;-68
2021/10/05 04:12:34;;;;;;;3.90;1.80;;;;;;;14.10;57.20;100832.25;4987189;28;123964;-68
2021/10/05 04:15:03;;;;;;;3.78;1.70;;;;;;;14.10;57.34;100834.91;4980256;28;114872;-69
2021/10/05 04:17:30;;;;;;;3.65;1.75;;;;;;;14.09;57.20;100827.88;4985974;28;114029;-68
2021/10/05 04:19:57;;;;;;;4.90;1.42;;;;;;;14.10;57.39;100829.56;4978642;28;124146;-68
2021/10/05 04:22:24;;;;;;;2.83;1.40;;;;;;;14.09;57.22;100822.56;4984127;28;123832;-68
2021/10/05 04:24:51;;;;;;;4.10;1.70;;;;;;;14.09;57.24;100817.22;4987809;28;114684;-68
2021/10/05 04:27:19;;;;;;;4.60;1.67;;;;;;;14.08;57.45;100810.16;4986331;28;113793;-68
2021/10/05 04:29:46;;;;;;;3.42;1.60;;;;;;;14.08;57.29;100810.16;4987369;28;123889;-68
2021/10/05 04:32:13;;;;;;;4.40;1.48;;;;;;;14.09;57.36;100806.56;4970250;28;123839;-68
2021/10/05 04:34:40;;;;;;;3.20;1.70;;;;;;;14.09;57.44;100801.25;4981131;28;113372;-68
2021/10/05 04:37:07;;;;;;;3.03;1.50;;;;;;;14.08;57.34;100788.88;4991652;28;114524;-68
2021/10/05 04:39:36;;;;;;;2.67;1.67;;;;;;;14.08;57.49;100788.88;4985215;28;123864;-68
2021/10/05 04:42:04;;;;;;;3.05;1.70;;;;;;;14.09;57.38;100801.25;4988085;28;123831;-67
2021/10/05 04:44:31;;;;;;;2.75;1.50;;;;;;;14.10;57.37;100780.78;4985273;28;114642;-66
2021/10/05 04:46:58;;;;;;;2.80;1.50;;;;;;;14.11;57.46;100782.50;4988450;28;114353;-67
2021/10/05 04:49:25;;;;;;;2.80;1.60;;;;;;;14.10;57.61;100786.97;4986017;28;124366;-67
2021/10/05 04:51:53;;;;;;;3.15;1.50;;;;;;;14.10;57.39;100765.66;4964948;28;123372;-67
2021/10/05 04:54:20;;;;;;;4.80;1.65;;;;;;;14.10;57.39;100786.97;4990909;28;116005;-67
2021/10/05 04:56:48;;;;;;;2.70;1.42;;;;;;;14.10;57.54;100781.63;4985902;28;115014;-67
2021/10/05 04:59:18;;;;;;;3.28;1.60;;;;;;;14.09;57.45;100769.28;4986648;28;124142;-67
2021/10/05 05:01:45;;;;;;;2.35;1.60;;;;;;;14.07;57.49;100781.84;4989868;28;124667;-67
2021/10/05 05:04:13;;;;;;;4.53;1.70;;;;;;;14.05;57.38;100778.38;4987118;28;114608;-67
2021/10/05 05:06:41;;;;;;;3.22;1.80;;;;;;;14.05;57.63;100766.88;4991594;28;113973;-67
2021/10/05 05:09:08;;;;;;;2.97;1.48;;;;;;;14.05;57.52;100785.53;4987781;28;126238;-68
2021/10/05 05:11:35;;;;;;;4.10;2.28;;;;;;;14.04;57.73;100766.03;5008387;22;123854;-64
2021/10/05 05:14:07;;;;;;;2.83;1.58;;;;;;;14.02;57.47;100762.63;4955344;28;111247;-65
2021/10/05 05:16:38;;;;;;;2.72;1.70;;;;;;;13.98;57.47;100766.41;4972289;28;114075;-65
2021/10/05 05:19:06;;;;;;;2.75;1.38;;;;;;;13.97;57.73;100754.03;4966337;28;123980;-64
2021/10/05 05:21:34;;;;;;;2.53;1.60;;;;;;;13.96;57.59;100757.69;4965271;28;123777;-64
2021/10/05 05:24:02;;;;;;;3.53;1.73;;;;;;;13.95;57.67;100756.78;4964304;28;113122;-64
2021/10/05 05:26:29;;;;;;;3.53;1.60;;;;;;;13.93;57.63;100763.19;4953092;28;113053;-64
2021/10/05 05:28:56;;;;;;;2.92;1.80;;;;;;;13.92;57.78;100753.47;4960202;28;124863;-64
2021/10/05 05:31:23;;;;;;;3.60;1.70;;;;;;;13.90;57.75;100742.03;4967920;28;124992;-64
2021/10/05 05:33:51;;;;;;;3.30;1.85;;;;;;;13.87;57.59;100742.25;4974120;28;114221;-65
2021/10/05 05:36:18;;;;;;;4.75;1.85;;;;;;;13.86;57.88;100740.53;4965229;28;114143;-64
2021/10/05 05:38:45;;;;;;;3.72;1.88;;;;;;;13.86;57.73;100735.19;4956878;28;124626;-64
2021/10/05 05:41:13;;;;;;;3.85;2.08;;;;;;;13.83;57.79;100726.44;4958863;28;124579;-64
2021/10/05 05:43:40;;;;;;;3.53;2.10;;;;;;;13.83;57.80;100730.94;4968111;28;115126;-64
2021/10/05 05:46:07;;;;;;;3.65;1.92;;;;;;;13.81;57.67;100728.34;4968494;28;114913;-64
2021/10/05 05:48:34;;;;;;;3.65;1.98;;;;;;;13.80;57.96;100726.63;4955135;28;124921;-64
2021/10/05 05:51:02;;;;;;;6.15;2.38;;;;;;;13.78;57.95;100728.53;4961232;28;123737;-64
2021/10/05 05:53:29;;;;;;;4.85;2.00;;;;;;;13.78;57.74;100728.53;4968839;28;114277;-64
2021/10/05 05:55:56;;;;;;;3.40;2.20;;;;;;;13.76;57.99;100719.78;4963101;28;114037;-64
2021/10/05 05:58:24;;;;;;;7.28;2.22;;;;;;;13.75;58.13;100718.09;4952193;28;124687;-64
2021/10/05 06:00:51;;;;;;;4.57;2.20;;;;;;;13.75;58.00;100718.09;4962145;28;123907;-64
2021/10/05 06:03:18;;;;;;;4.40;2.30;;;;;;;13.76;57.96;100718.94;4960330;28;114333;-64
2021/10/05 06:05:46;;;;;;;5.38;2.53;;;;;;;13.76;58.05;100714.47;4950305;28;113083;-63
2021/10/05 06:08:13;;;;;;;4.47;2.47;;;;;;;13.76;57.87;100702.97;4959935;28;123899;-63
2021/10/05 06:10:42;;;;;;;4.18;2.47;;;;;;;13.76;57.97;100701.16;4960219;28;124905;-63
2021/10/05 06:13:09;;;;;;;4.68;2.97;;;;;;;13.76;58.18;100702.97;4959213;28;114272;-63
2021/10/05 06:15:36;;;;;;;5.55;2.90;;;;;;;13.76;58.19;100701.16;4952847;28;112937;-64
2021/10/05 06:18:04;;;;;;;5.40;2.67;;;;;;;13.76;58.24;100693.16;4968111;28;124322;-64
2021/10/05 06:20:31;;;;;;;5.95;2.75;;;;;;;13.77;58.27;100689.56;4967517;28;124188;-64
2021/10/05 06:22:58;;;;;;;6.10;3.17;;;;;;;13.76;58.05;100687.84;4963368;28;114425;-64
2021/10/05 06:25:28;;;;;;;6.35;2.97;;;;;;;13.76;58.19;100682.50;4969718;28;114567;-64
2021/10/05 06:27:57;;;;;;;6.07;3.10;;;;;;;13.78;58.33;100680.63;4972681;28;124564;-64
2021/10/05 06:30:26;;;;;;;5.13;2.90;;;;;;;13.79;58.25;100687.66;4967156;28;124014;-63
2021/10/05 06:32:54;;;;;;;5.03;3.08;;;;;;;13.80;58.15;100677.88;4962700;28;115384;-64
2021/10/05 06:35:25;;;;;;;6.63;3.40;;;;;;;13.80;58.32;100673.38;4950560;28;115274;-63
2021/10/05 06:37:54;;;;;;;6.40;3.38;;;;;;;13.80;58.40;100673.38;4952744;28;123966;-64
2021/10/05 06:40:24;;;;;;;5.53;3.30;;;;;;;13.81;58.28;100674.25;4954819;28;122832;-63
2021/10/05 06:42:52;;;;;;;8.73;3.20;;;;;;;13.82;58.06;100671.50;4967585;28;114264;-64
2021/10/05 06:45:20;;;;;;;5.35;3.10;;;;;;;13.82;58.38;100676.84;4969416;28;114564;-63
2021/10/05 06:47:47;;;;;;;5.85;3.25;;;;;;;13.82;58.19;100676.84;4968918;28;124191;-63
2021/10/05 06:50:15;;;;;;;5.25;3.35;;;;;;;13.82;58.44;100673.31;4969232;28;123871;-63
2021/10/05 06:52:43;;;;;;;4.82;3.13;;;;;;;13.81;58.47;100669.78;4970857;28;114311;-64
2021/10/05 06:55:11;;;;;;;5.50;3.17;;;;;;;13.82;58.48;100671.50;4971042;28;114084;-64
2021/10/05 06:57:38;;;;;;;5.90;3.38;;;;;;;13.88;58.62;100669.41;4972329;28;124085;-63
2021/10/05 07:00:13;;;;;;;5.03;3.20;;;;;;;13.92;58.56;100670.91;4969884;28;124064;-63
2021/10/05 07:02:42;;;;;;;7.78;3.50;;;;;;;13.99;58.73;100672.25;4965693;28;114335;-64
2021/10/05 07:05:10;;;;;;;6.95;3.67;;;;;;;14.06;58.74;100662.09;4954639;28;113800;-64
2021/10/05 07:07:43;;;;;;;5.20;3.15;;;;;;;14.13;58.61;100664.28;4970067;28;123841;-64
2021/10/05 07:10:13;;;;;;;5.80;3.53;;;;;;;14.20;58.63;100660.28;4964439;28;124102;-64
2021/10/05 07:12:41;;;;;;;5.28;3.40;;;;;;;14.30;58.69;100667.69;4968460;28;113256;-63
2021/10/05 07:15:11;;;;;;;5.50;3.35;;;;;;;14.37;58.58;100661.00;4969767;28;114505;-64
2021/10/05 07:17:38;;;;;;;5.22;3.50;;;;;;;14.46;58.80;100654.22;4969419;28;124091;-63
2021/10/05 07:20:07;;;;;;;5.28;3.13;;;;;;;14.53;58.73;100656.41;4966954;28;123956;-63
2021/10/05 07:22:35;;;;;;;5.25;3.17;;;;;;;14.62;58.83;100659.44;4968046;28;115313;-64
2021/10/05 07:25:02;;;;;;;5.05;3.05;;;;;;;14.69;58.42;100655.44;4944963;28;114942;-64
2021/10/05 07:27:35;;;;;;;6.20;3.33;;;;;;;14.72;58.40;100649.91;4959537;28;124062;-64
2021/10/05 07:30:06;;;;;;;3.90;2.65;;;;;;;14.75;58.21;100649.72;4969006;28;123797;-66
2021/10/05 07:32:34;;;;;;;5.50;3.40;;;;;;;14.77;58.16;100647.81;4972138;28;114821;-64
2021/10/05 07:35:01;;;;;;;5.43;3.20;;;;;;;14.80;58.15;100642.25;4957236;28;113781;-65
2021/10/05 07:37:29;;;;;;;6.75;3.15;;;;;;;14.85;58.24;100634.81;4967194;28;124162;-65
2021/10/05 07:39:57;;;;;;;4.53;2.88;;;;;;;14.90;58.21;100632.69;4954726;28;122844;-65
2021/10/05 07:42:24;;;;;;;4.47;2.85;;;;;;;14.96;58.14;100626.94;4956757;28;114645;-65
2021/10/05 07:44:51;;;;;;;6.32;3.00;;;;;;;15.03;58.20;100623.84;4957124;28;114488;-65
2021/10/05 07:47:19;;;;;;;4.80;2.90;;;;;;;15.09;58.17;100615.47;4959092;28;124143;-65
2021/10/05 07:49:46;;;;;;;4.55;2.88;;;;;;;15.15;58.05;100605.22;4962791;28;123894;-65
2021/10/05 07:52:13;;;;;;;5.30;3.00;;;;;;;15.23;58.06;100596.69;4964045;28;112618;-64
2021/10/05 07:54:40;;;;;;;6.25;3.00;;;;;;;15.29;58.12;100598.94;4957363;28;114450;-64
2021/10/05 07:57:07;;;;;;;7.20;3.35;;;;;;;15.36;57.95;100597.56;4960829;28;123833;-64
2021/10/05 07:59:36;;;;;;;7.82;2.92;;;;;;;15.43;58.09;100602.50;4949883;28;122626;-64
2021/10/05 08:02:06;;;;;;;4.38;2.80;;;;;;;15.49;57.86;100596.72;4963676;28;114172;-65
2021/10/05 08:04:33;;;;;;;4.45;2.80;;;;;;;15.54;57.71;100586.59;4958778;28;114332;-64
2021/10/05 08:07:00;;;;;;;4.95;2.63;;;;;;;15.59;57.75;100576.41;4961323;28;123993;-64
2021/10/05 08:09:27;;;;;;;6.40;2.53;;;;;;;15.64;57.59;100579.63;4966034;28;123737;-64
2021/10/05 08:11:55;;;;;;;5.30;2.88;;;;;;;15.70;57.74;100568.50;4965282;28;115865;-65
2021/10/05 08:14:22;;;;;;;4.65;2.83;;;;;;;15.77;57.74;100583.16;4965698;28;114713;-65
2021/10/05 08:16:49;;;;;;;5.30;3.10;;;;;;;15.85;57.80;100581.75;4967432;28;124309;-65
2021/10/05 08:19:17;;;;;;;5.38;2.83;;;;;;;15.93;57.44;100572.22;4959571;28;124020;-63
2021/10/05 08:21:45;;;;;;;5.82;2.95;;;;;;;16.03;57.59;100569.75;4959916;28;114395;-63
2021/10/05 08:24:12;;;;;;;4.35;3.03;;;;;;;16.12;57.35;100574.44;4946365;28;114028;-63
2021/10/05 08:26:39;;;;;;;4.65;2.92;;;;;;;16.22;57.33;100563.06;4965166;28;124461;-63
2021/10/05 08:29:06;;;;;;;4.40;2.50;;;;;;;16.33;57.27;100564.00;4957368;28;122988;-63
2021/10/05 08:31:33;;;;;;;4.63;2.13;;;;;;;16.42;57.26;100554.41;4975872;28;114364;-63
2021/10/05 08:34:01;;;;;;;5.13;2.47;;;;;;;16.53;56.73;100549.13;4973322;28;113812;-63
2021/10/05 08:36:28;;;;;;;7.20;2.78;;;;;;;16.62;56.87;100541.41;4957507;28;123471;-63
2021/10/05 08:38:55;;;;;;;4.78;2.47;;;;;;;16.72;56.77;100534.38;4954052;28;124640;-64
2021/10/05 08:41:23;;;;;;;5.97;2.33;;;;;;;16.82;56.73;100529.19;4957875;28;113186;-63
2021/10/05 08:43:50;;;;;;;4.28;2.25;;;;;;;16.93;56.76;100527.44;4955483;28;113856;-63
2021/10/05 08:46:18;;;;;;;3.92;2.25;;;;;;;17.06;56.71;100526.47;4961947;28;123814;-63
2021/10/05 08:48:46;;;;;;;4.00;2.28;;;;;;;17.18;56.63;100520.19;4948299;28;122684;-63
2021/10/05 08:51:14;;;;;;;4.05;2.50;;;;;;;17.29;56.43;100512.16;4968871;28;114211;-63
2021/10/05 08:53:42;;;;;;;4.63;2.40;;;;;;;17.41;56.24;100514.84;4968250;28;114633;-65
2021/10/05 08:56:10;;;;;;;6.38;2.30;;;;;;;17.51;56.26;100521.16;4973803;28;124308;-63
2021/10/05 08:58:43;;;;;;;4.85;2.10;;;;;;;17.62;56.26;100505.09;4962887;28;124291;-63
2021/10/05 09:01:13;;;;;;;4.10;2.10;;;;;;;17.73;55.96;100498.03;4940378;28;114440;-64
2021/10/05 09:03:49;;;;;;;3.35;1.90;;;;;;;17.84;55.76;100511.41;4966093;28;114836;-63
2021/10/05 09:06:16;;;;;;;;;;;;;;;17.93;56.06;100489.22;4971633;28;124038;-63
2021/10/05 09:08:45;;;;;;;4.50;1.90;;;;;;;18.04;55.77;100481.16;4964928;28;124113;-64
2021/10/05 09:11:13;;;;;;;3.78;1.90;;;;;;;18.15;55.65;100476.75;4974018;28;114263;-63
2021/10/05 09:13:45;;;;;;;5.45;2.03;;;;;;;18.24;55.36;100470.66;4966910;28;114263;-63
2021/10/05 09:16:16;;;;;;;3.80;1.80;;;;;;;18.35;55.52;100467.91;4971620;28;124420;-63
2021/10/05 09:19:11;;;;;;;2.97;1.60;;;;;;;18.46;55.43;100454.47;4963811;28;124079;-63
2021/10/05 09:21:45;;;;;;;2.78;1.73;;;;;;;18.58;55.23;100446.34;4975401;28;114398;-63
2021/10/05 09:24:32;;;;;;;3.83;1.52;;;;;;;18.69;55.35;100457.00;4966203;28;114480;-63
2021/10/05 09:27:04;;;;;;;4.63;1.33;;;;;;;18.81;55.25;100437.19;4973949;28;124868;-63
2021/10/05 09:29:34;;;;;;;2.30;1.60;;;;;;;18.94;54.95;100436.16;4974090;28;124615;-64
2021/10/05 09:32:02;;;;;;;4.53;1.42;;;;;;;19.05;54.77;100433.38;4958927;28;113567;-64
2021/10/05 09:34:45;;;;;;;2.35;1.33;;;;;;;19.18;54.71;100428.63;4941120;28;113448;-64
2021/10/05 09:37:16;;;;;;;3.30;1.08;;;;;;;19.30;54.46;100420.47;4955721;28;123912;-64
2021/10/05 09:39:48;;;;;;;3.00;1.10;;;;;;;19.39;54.17;100427.72;4956113;28;122942;-64
2021/10/05 09:42:39;;;;;;;2.72;1.15;;;;;;;19.47;53.88;100419.81;4953312;28;114723;-64
2021/10/05 09:45:09;;;;;;;2.67;1.10;;;;;;;19.57;53.81;100412.66;4967051;28;114342;-66
2021/10/05 09:47:47;;;;;;;2.55;1.30;;;;;;;19.66;53.83;100410.94;4971676;28;124006;-64
2021/10/05 09:50:16;;;;;;;5.07;1.30;;;;;;;19.76;53.57;100411.00;4957316;28;122879;-64
2021/10/05 09:52:52;;;;;;;5.45;1.40;;;;;;;19.84;53.41;100405.78;4945789;28;115151;-64
2021/10/05 09:55:22;;;;;;;2.47;1.20;;;;;;;19.93;52.89;100407.63;4968280;28;115246;-64
2021/10/05 09:57:51;;;;;;;2.67;1.20;;;;;;;20.00;52.83;100392.66;4958736;28;123511;-65
2021/10/05 10:00:21;;;;;;;2.33;1.30;;;;;;;20.05;52.46;100394.06;4964153;28;124031;-64
2021/10/05 10:02:50;;;;;;;3.47;1.20;;;;;;;20.06;52.05;100393.94;4973490;28;114177;-64
2021/10/05 10:05:23;;;;;;;3.85;1.30;;;;;;;20.09;52.17;100390.94;4973868;28;114380;-64
2021/10/05 10:07:54;;;;;;;4.68;1.20;;;;;;;20.16;52.40;100380.47;4966300;28;124504;-64
2021/10/05 10:10:28;;;;;;;2.97;1.17;;;;;;;20.25;52.40;100385.00;4963045;28;123822;-64
2021/10/05 10:13:01;;;;;;;2.65;1.30;;;;;;;20.33;52.22;100387.81;4955209;28;113298;-64
2021/10/05 10:15:34;;;;;;;2.67;0.98;;;;;;;20.45;52.18;100379.56;4970500;28;114558;-69
2021/10/05 10:18:04;;;;;;;2.85;1.30;;;;;;;20.52;51.86;100365.41;4956602;28;124050;-64
2021/10/05 10:20:34;;;;;;;2.03;1.10;;;;;;;20.61;51.67;100369.94;4953074;28;124820;-64
2021/10/05 10:23:02;;;;;;;2.17;1.10;;;;;;;20.68;51.42;100364.84;4972419;28;114159;-64
2021/10/05 10:25:32;;;;;;;2.50;1.10;;;;;;;20.72;51.12;100360.84;4952876;28;114081;-64
2021/10/05 10:28:12;;;;;;;4.03;1.48;;;;;;;20.76;51.22;100335.34;4960049;28;123882;-64
2021/10/05 10:30:51;;;;;;;4.78;1.20;;;;;;;20.80;51.10;100352.88;4958237;28;124540;-64
2021/10/05 10:33:19;;;;;;;3.47;1.00;;;;;;;20.85;50.85;100362.34;4970816;28;114782;-64
2021/10/05 10:35:53;;;;;;;2.63;1.10;;;;;;;20.89;50.69;100344.91;4973069;28;113824;-64
2021/10/05 10:38:29;;;;;;;4.20;1.10;;;;;;;20.92;50.50;100356.22;4968861;28;124808;-64
2021/10/05 10:40:58;;;;;;;2.97;0.98;;;;;;;20.96;50.31;100356.78;4943495;28;123586;-64
2021/10/05 10:43:28;;;;;;;3.17;0.90;;;;;;;21.00;50.43;100358.19;4970213;28;115548;-64
2021/10/05 10:46:01;;;;;;;2.10;1.10;;;;;;;21.06;50.14;100346.81;4951455;28;114985;-64
2021/10/05 10:48:37;;;;;;;4.22;0.90;;;;;;;21.12;50.19;100335.44;4958257;28;124400;-65
2021/10/05 10:51:13;;;;;;;1.92;1.00;;;;;;;21.19;50.16;100350.03;4963351;28;123838;-64
2021/10/05 10:53:42;;;;;;;2.35;0.93;;;;;;;21.28;50.28;100342.84;4952755;28;113716;-64
2021/10/05 10:56:13;;;;;;;1.80;0.80;;;;;;;21.38;50.12;100350.91;4968966;28;114120;-64
2021/10/05 10:58:45;;;;;;;2.63;1.00;;;;;;;21.44;49.76;100342.25;4951134;28;123044;-64
2021/10/05 11:01:16;;;;;;;4.70;1.17;;;;;;;21.48;49.71;100345.47;4959292;28;123880;-64
2021/10/05 11:03:44;;;;;;;2.35;1.05;;;;;;;21.49;49.54;100348.03;4961265;28;114224;-64
2021/10/05 11:06:23;;;;;;;2.47;0.80;;;;;;;21.50;49.51;100349.72;4956392;28;114231;-64
2021/10/05 11:08:57;;;;;;;3.33;1.00;;;;;;;21.48;49.33;100346.31;4938374;28;123829;-64
2021/10/05 11:11:42;;;;;;;2.38;0.88;;;;;;;21.47;49.27;100339.22;4952250;28;124409;-64
2021/10/05 11:14:30;;;;;;;2.00;0.73;;;;;;;21.44;49.39;100334.16;5001690;22;114854;-65
2021/10/05 11:17:06;;;;;;;3.05;0.80;;;;;;;21.45;49.02;100333.13;4956167;28;113358;-65
2021/10/05 11:19:36;;;;;;;5.18;1.10;;;;;;;21.44;49.06;100328.78;4970656;28;123936;-65
2021/10/05 11:22:07;;;;;;;2.17;0.80;;;;;;;21.43;48.99;100332.41;4972084;28;123795;-65
2021/10/05 11:24:40;;;;;;;1.70;0.90;;;;;;;21.43;48.90;100326.19;4966334;28;115170;-65
2021/10/05 11:27:10;;;;;;;3.40;1.10;;;;;;;21.43;48.77;100316.25;4965338;28;113707;-65